Waco's Hourly Summary for Sunday, April 16, 2017
Hour Temp
(f)
RH
(%)
Solar Rad.
(MJ/m2)
Rainfall
(in)
Wind
(mph)
4/16/2017 12:00 AM 70 72 0 0 4.81
4/16/2017 1:00 AM 68 74 0 0 4.17
4/16/2017 2:00 AM 67 78 0 0 2.69
4/16/2017 3:00 AM 66 83 0 0 4.83
4/16/2017 4:00 AM 66 85 0 0 4.18
4/16/2017 5:00 AM 66 87 0 0 3.01
4/16/2017 6:00 AM 66 89 0 0 3.43
4/16/2017 7:00 AM 66 92 0 0 2.81
4/16/2017 8:00 AM 67 90 0.1 0 4.43
4/16/2017 9:00 AM 70 78 0.58 0 4.84
4/16/2017 10:00 AM 71 77 0.76 0 5.61
4/16/2017 11:00 AM 74 67 1.4 0 6.49
4/16/2017 12:00 PM 75 65 1.08 0 7.4
4/16/2017 1:00 PM 75 66 1.09 0 6.52
4/16/2017 2:00 PM 76 64 1.1 0 5.57
4/16/2017 3:00 PM 79 57 2.25 0 5.9
4/16/2017 4:00 PM 80 58 1.47 0 4.4
4/16/2017 5:00 PM 79 58 1.02 0 5
4/16/2017 6:00 PM 79 60 0.78 0 5.3
4/16/2017 7:00 PM 80 61 0.6 0 4.16
4/16/2017 8:00 PM 77 64 0.11 0 2.1
4/16/2017 9:00 PM 75 67 0 0 2.82
4/16/2017 10:00 PM 74 71 0 0 2.95
4/16/2017 11:00 PM 74 69 0 0 6.59
Data Summary 72 72 12.34 0.00 4.58